sensor_id;sensor_type;location;lat;lon;timestamp;P1;durP1;ratioP1;P2;durP2;ratioP2
75700;SDS011;64321;48.796;44.740;2024-02-26T00:01:32;7.97;;;2.70;;
75700;SDS011;64321;48.796;44.740;2024-02-26T00:06:36;6.78;;;2.15;;
75700;SDS011;64321;48.796;44.740;2024-02-26T00:11:39;4.97;;;2.13;;
75700;SDS011;64321;48.796;44.740;2024-02-26T00:16:42;5.90;;;1.63;;
75700;SDS011;64321;48.796;44.740;2024-02-26T00:21:44;2.83;;;1.20;;
75700;SDS011;64321;48.796;44.740;2024-02-26T00:26:47;6.50;;;2.40;;
75700;SDS011;64321;48.796;44.740;2024-02-26T00:31:55;4.70;;;2.33;;
75700;SDS011;64321;48.796;44.740;2024-02-26T00:36:58;6.00;;;2.05;;
75700;SDS011;64321;48.796;44.740;2024-02-26T00:42:00;11.75;;;2.63;;
75700;SDS011;64321;48.796;44.740;2024-02-26T00:47:03;8.32;;;2.72;;
75700;SDS011;64321;48.796;44.740;2024-02-26T00:52:05;7.28;;;2.33;;
75700;SDS011;64321;48.796;44.740;2024-02-26T00:57:08;6.25;;;2.35;;
75700;SDS011;64321;48.796;44.740;2024-02-26T01:02:10;5.80;;;2.28;;
75700;SDS011;64321;48.796;44.740;2024-02-26T01:07:13;7.47;;;3.95;;
75700;SDS011;64321;48.796;44.740;2024-02-26T01:12:16;6.93;;;2.58;;
75700;SDS011;64321;48.796;44.740;2024-02-26T01:17:18;7.40;;;2.30;;
75700;SDS011;64321;48.796;44.740;2024-02-26T01:22:21;8.98;;;2.50;;
75700;SDS011;64321;48.796;44.740;2024-02-26T01:32:28;6.53;;;2.35;;
75700;SDS011;64321;48.796;44.740;2024-02-26T01:37:31;5.28;;;2.28;;
75700;SDS011;64321;48.796;44.740;2024-02-26T01:42:33;7.18;;;2.80;;
75700;SDS011;64321;48.796;44.740;2024-02-26T01:47:36;6.03;;;2.65;;
75700;SDS011;64321;48.796;44.740;2024-02-26T01:52:39;3.78;;;2.15;;
75700;SDS011;64321;48.796;44.740;2024-02-26T01:57:42;3.10;;;1.58;;
75700;SDS011;64321;48.796;44.740;2024-02-26T02:02:47;2.67;;;1.33;;
75700;SDS011;64321;48.796;44.740;2024-02-26T02:07:51;5.53;;;2.10;;
75700;SDS011;64321;48.796;44.740;2024-02-26T02:12:54;3.85;;;2.00;;
75700;SDS011;64321;48.796;44.740;2024-02-26T02:17:57;4.30;;;1.25;;
75700;SDS011;64321;48.796;44.740;2024-02-26T02:23:00;3.30;;;1.38;;
75700;SDS011;64321;48.796;44.740;2024-02-26T02:28:03;4.47;;;1.77;;
75700;SDS011;64321;48.796;44.740;2024-02-26T02:33:06;3.30;;;1.90;;
75700;SDS011;64321;48.796;44.740;2024-02-26T02:43:11;2.03;;;1.50;;
75700;SDS011;64321;48.796;44.740;2024-02-26T02:48:14;5.25;;;2.50;;
75700;SDS011;64321;48.796;44.740;2024-02-26T02:53:17;3.75;;;1.75;;
75700;SDS011;64321;48.796;44.740;2024-02-26T02:58:20;6.78;;;1.98;;
75700;SDS011;64321;48.796;44.740;2024-02-26T03:03:23;3.47;;;1.65;;
75700;SDS011;64321;48.796;44.740;2024-02-26T03:08:27;5.22;;;2.53;;
75700;SDS011;64321;48.796;44.740;2024-02-26T03:13:29;3.88;;;2.28;;
75700;SDS011;64321;48.796;44.740;2024-02-26T03:18:32;4.63;;;2.00;;
75700;SDS011;64321;48.796;44.740;2024-02-26T03:23:35;4.25;;;0.82;;
75700;SDS011;64321;48.796;44.740;2024-02-26T03:28:38;4.32;;;2.10;;
75700;SDS011;64321;48.796;44.740;2024-02-26T03:33:41;3.13;;;0.82;;
75700;SDS011;64321;48.796;44.740;2024-02-26T03:38:43;3.85;;;2.15;;
75700;SDS011;64321;48.796;44.740;2024-02-26T03:43:46;4.13;;;2.60;;
75700;SDS011;64321;48.796;44.740;2024-02-26T03:48:49;4.22;;;1.63;;
75700;SDS011;64321;48.796;44.740;2024-02-26T03:53:52;2.80;;;1.33;;
75700;SDS011;64321;48.796;44.740;2024-02-26T03:58:54;2.42;;;1.75;;
75700;SDS011;64321;48.796;44.740;2024-02-26T04:03:57;5.25;;;1.77;;
75700;SDS011;64321;48.796;44.740;2024-02-26T04:08:59;3.67;;;1.90;;
75700;SDS011;64321;48.796;44.740;2024-02-26T04:14:03;3.08;;;0.80;;
75700;SDS011;64321;48.796;44.740;2024-02-26T04:19:05;5.70;;;2.00;;
75700;SDS011;64321;48.796;44.740;2024-02-26T04:24:09;2.10;;;1.33;;
75700;SDS011;64321;48.796;44.740;2024-02-26T04:29:11;5.18;;;1.95;;
75700;SDS011;64321;48.796;44.740;2024-02-26T04:34:14;2.88;;;0.88;;
75700;SDS011;64321;48.796;44.740;2024-02-26T04:39:17;5.57;;;2.42;;
75700;SDS011;64321;48.796;44.740;2024-02-26T04:44:20;4.32;;;2.45;;
75700;SDS011;64321;48.796;44.740;2024-02-26T04:49:22;4.40;;;2.08;;
75700;SDS011;64321;48.796;44.740;2024-02-26T04:54:25;3.92;;;1.58;;
75700;SDS011;64321;48.796;44.740;2024-02-26T04:59:28;5.22;;;1.70;;
75700;SDS011;64321;48.796;44.740;2024-02-26T05:04:31;5.80;;;1.92;;
75700;SDS011;64321;48.796;44.740;2024-02-26T05:09:34;3.13;;;1.40;;
75700;SDS011;64321;48.796;44.740;2024-02-26T05:14:37;2.90;;;1.13;;
75700;SDS011;64321;48.796;44.740;2024-02-26T05:19:39;6.45;;;2.17;;
75700;SDS011;64321;48.796;44.740;2024-02-26T05:24:42;4.45;;;2.08;;
75700;SDS011;64321;48.796;44.740;2024-02-26T05:29:45;4.47;;;1.40;;
75700;SDS011;64321;48.796;44.740;2024-02-26T05:34:47;4.70;;;1.23;;
75700;SDS011;64321;48.796;44.740;2024-02-26T05:39:50;4.88;;;1.27;;
75700;SDS011;64321;48.796;44.740;2024-02-26T05:44:52;4.90;;;1.42;;
75700;SDS011;64321;48.796;44.740;2024-02-26T05:49:55;2.88;;;1.15;;
75700;SDS011;64321;48.796;44.740;2024-02-26T05:55:00;4.60;;;1.10;;
75700;SDS011;64321;48.796;44.740;2024-02-26T06:00:03;5.20;;;1.23;;
75700;SDS011;64321;48.796;44.740;2024-02-26T06:05:13;7.30;;;1.38;;
75700;SDS011;64321;48.796;44.740;2024-02-26T06:10:16;5.00;;;1.83;;
75700;SDS011;64321;48.796;44.740;2024-02-26T06:15:18;6.68;;;1.92;;
75700;SDS011;64321;48.796;44.740;2024-02-26T06:20:21;8.13;;;2.70;;
75700;SDS011;64321;48.796;44.740;2024-02-26T06:25:23;10.07;;;1.98;;
75700;SDS011;64321;48.796;44.740;2024-02-26T06:30:27;5.50;;;1.25;;
75700;SDS011;64321;48.796;44.740;2024-02-26T06:35:30;3.88;;;1.35;;
75700;SDS011;64321;48.796;44.740;2024-02-26T06:40:33;7.05;;;1.13;;
75700;SDS011;64321;48.796;44.740;2024-02-26T06:45:36;6.30;;;2.33;;
75700;SDS011;64321;48.796;44.740;2024-02-26T06:50:38;8.10;;;1.90;;
75700;SDS011;64321;48.796;44.740;2024-02-26T06:55:41;6.28;;;1.48;;
75700;SDS011;64321;48.796;44.740;2024-02-26T07:00:44;10.63;;;3.42;;
75700;SDS011;64321;48.796;44.740;2024-02-26T07:05:48;11.55;;;1.85;;
75700;SDS011;64321;48.796;44.740;2024-02-26T07:10:51;5.63;;;2.25;;
75700;SDS011;64321;48.796;44.740;2024-02-26T07:15:54;5.88;;;1.55;;
75700;SDS011;64321;48.796;44.740;2024-02-26T07:20:57;7.95;;;2.63;;
75700;SDS011;64321;48.796;44.740;2024-02-26T07:31:02;3.63;;;2.15;;
75700;SDS011;64321;48.796;44.740;2024-02-26T07:36:05;5.43;;;2.35;;
75700;SDS011;64321;48.796;44.740;2024-02-26T07:41:08;7.78;;;2.15;;
75700;SDS011;64321;48.796;44.740;2024-02-26T07:46:11;7.63;;;2.30;;
75700;SDS011;64321;48.796;44.740;2024-02-26T07:51:14;6.80;;;2.38;;
75700;SDS011;64321;48.796;44.740;2024-02-26T07:56:17;6.28;;;2.35;;
75700;SDS011;64321;48.796;44.740;2024-02-26T08:01:20;5.53;;;2.47;;
75700;SDS011;64321;48.796;44.740;2024-02-26T08:06:23;2.60;;;1.45;;
75700;SDS011;64321;48.796;44.740;2024-02-26T08:11:26;4.53;;;1.98;;
75700;SDS011;64321;48.796;44.740;2024-02-26T08:16:30;8.48;;;1.60;;
75700;SDS011;64321;48.796;44.740;2024-02-26T08:21:36;3.90;;;1.02;;
75700;SDS011;64321;48.796;44.740;2024-02-26T08:26:38;8.57;;;1.85;;
75700;SDS011;64321;48.796;44.740;2024-02-26T08:31:41;6.63;;;1.52;;
75700;SDS011;64321;48.796;44.740;2024-02-26T08:36:44;4.00;;;1.02;;
75700;SDS011;64321;48.796;44.740;2024-02-26T08:41:46;5.82;;;1.52;;
75700;SDS011;64321;48.796;44.740;2024-02-26T08:46:49;3.78;;;1.50;;
75700;SDS011;64321;48.796;44.740;2024-02-26T08:51:53;2.50;;;0.93;;
75700;SDS011;64321;48.796;44.740;2024-02-26T08:56:55;14.27;;;2.03;;
75700;SDS011;64321;48.796;44.740;2024-02-26T09:01:58;4.95;;;1.70;;
75700;SDS011;64321;48.796;44.740;2024-02-26T09:07:00;3.45;;;1.23;;
75700;SDS011;64321;48.796;44.740;2024-02-26T09:12:04;9.32;;;2.03;;
75700;SDS011;64321;48.796;44.740;2024-02-26T09:17:07;5.07;;;2.28;;
75700;SDS011;64321;48.796;44.740;2024-02-26T09:22:10;4.97;;;1.10;;
75700;SDS011;64321;48.796;44.740;2024-02-26T09:27:16;3.20;;;1.08;;
75700;SDS011;64321;48.796;44.740;2024-02-26T09:32:19;8.00;;;1.08;;
75700;SDS011;64321;48.796;44.740;2024-02-26T09:37:21;3.15;;;0.90;;
75700;SDS011;64321;48.796;44.740;2024-02-26T09:42:27;3.95;;;1.33;;
75700;SDS011;64321;48.796;44.740;2024-02-26T09:47:33;5.57;;;1.38;;
75700;SDS011;64321;48.796;44.740;2024-02-26T09:52:37;5.50;;;1.08;;
75700;SDS011;64321;48.796;44.740;2024-02-26T09:57:45;3.92;;;0.90;;
75700;SDS011;64321;48.796;44.740;2024-02-26T10:02:48;3.67;;;1.30;;
75700;SDS011;64321;48.796;44.740;2024-02-26T10:07:52;3.67;;;0.95;;
75700;SDS011;64321;48.796;44.740;2024-02-26T10:12:54;2.65;;;0.95;;
75700;SDS011;64321;48.796;44.740;2024-02-26T10:17:57;2.90;;;1.00;;
75700;SDS011;64321;48.796;44.740;2024-02-26T10:23:03;4.32;;;1.05;;
75700;SDS011;64321;48.796;44.740;2024-02-26T10:28:07;4.45;;;1.10;;
75700;SDS011;64321;48.796;44.740;2024-02-26T10:33:11;3.38;;;1.13;;
75700;SDS011;64321;48.796;44.740;2024-02-26T10:38:16;3.38;;;0.93;;
75700;SDS011;64321;48.796;44.740;2024-02-26T10:43:22;7.20;;;1.08;;
75700;SDS011;64321;48.796;44.740;2024-02-26T10:48:25;3.95;;;1.02;;
75700;SDS011;64321;48.796;44.740;2024-02-26T10:53:28;5.43;;;1.15;;
75700;SDS011;64321;48.796;44.740;2024-02-26T10:58:32;11.90;;;2.28;;
75700;SDS011;64321;48.796;44.740;2024-02-26T11:03:35;9.27;;;2.28;;
75700;SDS011;64321;48.796;44.740;2024-02-26T11:08:39;10.00;;;2.80;;
75700;SDS011;64321;48.796;44.740;2024-02-26T11:13:44;10.95;;;3.10;;
75700;SDS011;64321;48.796;44.740;2024-02-26T11:18:51;5.50;;;1.58;;
75700;SDS011;64321;48.796;44.740;2024-02-26T11:23:57;6.93;;;2.08;;
75700;SDS011;64321;48.796;44.740;2024-02-26T11:29:00;4.25;;;1.52;;
75700;SDS011;64321;48.796;44.740;2024-02-26T11:34:04;5.07;;;1.30;;
75700;SDS011;64321;48.796;44.740;2024-02-26T11:39:11;4.20;;;1.65;;
75700;SDS011;64321;48.796;44.740;2024-02-26T11:44:14;7.65;;;1.95;;
75700;SDS011;64321;48.796;44.740;2024-02-26T11:49:31;5.07;;;1.58;;
75700;SDS011;64321;48.796;44.740;2024-02-26T11:59:48;6.68;;;1.60;;
75700;SDS011;64321;48.796;44.740;2024-02-26T12:04:51;6.03;;;1.58;;
75700;SDS011;64321;48.796;44.740;2024-02-26T12:10:12;9.50;;;2.30;;
75700;SDS011;64321;48.796;44.740;2024-02-26T12:15:38;7.30;;;1.75;;
75700;SDS011;64321;48.796;44.740;2024-02-26T12:20:44;10.65;;;2.72;;
75700;SDS011;64321;48.796;44.740;2024-02-26T12:25:47;9.80;;;2.47;;
75700;SDS011;64321;48.796;44.740;2024-02-26T12:30:50;5.80;;;2.00;;
75700;SDS011;64321;48.796;44.740;2024-02-26T12:35:55;9.98;;;2.15;;
75700;SDS011;64321;48.796;44.740;2024-02-26T12:40:59;8.23;;;1.83;;
75700;SDS011;64321;48.796;44.740;2024-02-26T12:46:03;4.53;;;1.95;;
75700;SDS011;64321;48.796;44.740;2024-02-26T12:51:05;8.18;;;1.77;;
75700;SDS011;64321;48.796;44.740;2024-02-26T12:56:09;6.22;;;1.42;;
75700;SDS011;64321;48.796;44.740;2024-02-26T13:01:15;5.57;;;0.95;;
75700;SDS011;64321;48.796;44.740;2024-02-26T13:06:20;3.92;;;1.45;;
75700;SDS011;64321;48.796;44.740;2024-02-26T13:11:24;5.22;;;1.77;;
75700;SDS011;64321;48.796;44.740;2024-02-26T13:16:26;5.53;;;1.27;;
75700;SDS011;64321;48.796;44.740;2024-02-26T13:21:29;4.93;;;1.80;;
75700;SDS011;64321;48.796;44.740;2024-02-26T13:26:32;4.95;;;1.45;;
75700;SDS011;64321;48.796;44.740;2024-02-26T13:31:40;5.80;;;1.27;;
75700;SDS011;64321;48.796;44.740;2024-02-26T13:36:46;3.67;;;1.33;;
75700;SDS011;64321;48.796;44.740;2024-02-26T13:41:48;6.93;;;1.40;;
75700;SDS011;64321;48.796;44.740;2024-02-26T13:46:51;3.67;;;1.38;;
75700;SDS011;64321;48.796;44.740;2024-02-26T13:51:53;6.57;;;1.52;;
75700;SDS011;64321;48.796;44.740;2024-02-26T13:56:56;5.22;;;1.42;;
75700;SDS011;64321;48.796;44.740;2024-02-26T14:01:59;4.85;;;1.45;;
75700;SDS011;64321;48.796;44.740;2024-02-26T14:07:01;8.43;;;2.00;;
75700;SDS011;64321;48.796;44.740;2024-02-26T14:12:05;9.85;;;2.60;;
75700;SDS011;64321;48.796;44.740;2024-02-26T14:17:08;6.72;;;2.35;;
75700;SDS011;64321;48.796;44.740;2024-02-26T14:22:11;5.55;;;1.83;;
75700;SDS011;64321;48.796;44.740;2024-02-26T14:27:13;3.75;;;1.83;;
75700;SDS011;64321;48.796;44.740;2024-02-26T14:32:18;4.32;;;1.40;;
75700;SDS011;64321;48.796;44.740;2024-02-26T14:42:22;8.27;;;1.65;;
75700;SDS011;64321;48.796;44.740;2024-02-26T14:47:26;2.78;;;1.75;;
75700;SDS011;64321;48.796;44.740;2024-02-26T14:52:29;3.35;;;1.70;;
75700;SDS011;64321;48.796;44.740;2024-02-26T14:57:31;6.75;;;2.95;;
75700;SDS011;64321;48.796;44.740;2024-02-26T15:02:34;4.15;;;1.52;;
75700;SDS011;64321;48.796;44.740;2024-02-26T15:12:42;2.58;;;1.42;;
75700;SDS011;64321;48.796;44.740;2024-02-26T15:17:45;2.60;;;1.30;;
75700;SDS011;64321;48.796;44.740;2024-02-26T15:22:48;2.30;;;1.55;;
75700;SDS011;64321;48.796;44.740;2024-02-26T15:32:53;3.75;;;1.23;;
75700;SDS011;64321;48.796;44.740;2024-02-26T15:37:56;5.75;;;1.63;;
75700;SDS011;64321;48.796;44.740;2024-02-26T15:43:00;5.70;;;2.38;;
75700;SDS011;64321;48.796;44.740;2024-02-26T15:48:02;3.65;;;0.70;;
75700;SDS011;64321;48.796;44.740;2024-02-26T15:53:05;3.63;;;2.05;;
75700;SDS011;64321;48.796;44.740;2024-02-26T15:58:08;2.95;;;1.75;;
75700;SDS011;64321;48.796;44.740;2024-02-26T16:03:12;2.67;;;1.17;;
75700;SDS011;64321;48.796;44.740;2024-02-26T16:08:19;6.38;;;1.80;;
75700;SDS011;64321;48.796;44.740;2024-02-26T16:13:23;3.35;;;2.08;;
75700;SDS011;64321;48.796;44.740;2024-02-26T16:18:26;3.85;;;2.08;;
75700;SDS011;64321;48.796;44.740;2024-02-26T16:23:29;5.15;;;1.55;;
75700;SDS011;64321;48.796;44.740;2024-02-26T16:28:31;3.60;;;1.10;;
75700;SDS011;64321;48.796;44.740;2024-02-26T16:33:34;5.00;;;2.20;;
75700;SDS011;64321;48.796;44.740;2024-02-26T16:38:37;2.35;;;1.45;;
75700;SDS011;64321;48.796;44.740;2024-02-26T16:43:39;7.93;;;1.67;;
75700;SDS011;64321;48.796;44.740;2024-02-26T16:48:42;5.35;;;0.80;;
75700;SDS011;64321;48.796;44.740;2024-02-26T16:53:46;5.15;;;2.13;;
75700;SDS011;64321;48.796;44.740;2024-02-26T16:58:48;3.10;;;1.25;;
75700;SDS011;64321;48.796;44.740;2024-02-26T17:03:52;6.18;;;1.30;;
75700;SDS011;64321;48.796;44.740;2024-02-26T17:08:54;4.97;;;1.30;;
75700;SDS011;64321;48.796;44.740;2024-02-26T17:13:57;3.65;;;1.10;;
75700;SDS011;64321;48.796;44.740;2024-02-26T17:19:00;3.05;;;1.30;;
75700;SDS011;64321;48.796;44.740;2024-02-26T17:29:06;2.92;;;1.17;;
75700;SDS011;64321;48.796;44.740;2024-02-26T17:34:11;3.85;;;1.20;;
75700;SDS011;64321;48.796;44.740;2024-02-26T17:39:14;1.85;;;0.70;;
75700;SDS011;64321;48.796;44.740;2024-02-26T17:44:19;2.20;;;1.10;;
75700;SDS011;64321;48.796;44.740;2024-02-26T17:49:24;5.55;;;2.28;;
75700;SDS011;64321;48.796;44.740;2024-02-26T17:54:29;6.32;;;1.15;;
75700;SDS011;64321;48.796;44.740;2024-02-26T17:59:32;3.30;;;1.02;;
75700;SDS011;64321;48.796;44.740;2024-02-26T18:04:35;4.57;;;2.05;;
75700;SDS011;64321;48.796;44.740;2024-02-26T18:09:38;2.65;;;0.77;;
75700;SDS011;64321;48.796;44.740;2024-02-26T18:19:43;4.43;;;1.10;;
75700;SDS011;64321;48.796;44.740;2024-02-26T18:24:46;3.03;;;1.10;;
75700;SDS011;64321;48.796;44.740;2024-02-26T18:29:48;4.70;;;1.05;;
75700;SDS011;64321;48.796;44.740;2024-02-26T18:34:51;5.00;;;1.10;;
75700;SDS011;64321;48.796;44.740;2024-02-26T18:39:55;4.63;;;1.13;;
75700;SDS011;64321;48.796;44.740;2024-02-26T18:44:58;5.35;;;1.92;;
75700;SDS011;64321;48.796;44.740;2024-02-26T18:50:01;3.53;;;1.10;;
75700;SDS011;64321;48.796;44.740;2024-02-26T18:55:05;5.63;;;1.50;;
75700;SDS011;64321;48.796;44.740;2024-02-26T19:00:08;2.20;;;0.63;;
75700;SDS011;64321;48.796;44.740;2024-02-26T19:05:11;4.72;;;1.58;;
75700;SDS011;64321;48.796;44.740;2024-02-26T19:10:14;6.00;;;0.90;;
75700;SDS011;64321;48.796;44.740;2024-02-26T19:15:17;2.25;;;0.90;;
75700;SDS011;64321;48.796;44.740;2024-02-26T19:20:22;6.10;;;1.05;;
75700;SDS011;64321;48.796;44.740;2024-02-26T19:25:25;2.53;;;0.75;;
75700;SDS011;64321;48.796;44.740;2024-02-26T19:30:27;3.33;;;1.08;;
75700;SDS011;64321;48.796;44.740;2024-02-26T19:40:33;5.50;;;1.17;;
75700;SDS011;64321;48.796;44.740;2024-02-26T19:45:35;4.55;;;0.88;;
75700;SDS011;64321;48.796;44.740;2024-02-26T19:50:39;5.80;;;1.65;;
75700;SDS011;64321;48.796;44.740;2024-02-26T19:55:46;5.97;;;1.27;;
75700;SDS011;64321;48.796;44.740;2024-02-26T20:00:49;2.45;;;0.98;;
75700;SDS011;64321;48.796;44.740;2024-02-26T20:05:52;2.28;;;0.68;;
75700;SDS011;64321;48.796;44.740;2024-02-26T20:10:54;4.00;;;1.10;;
75700;SDS011;64321;48.796;44.740;2024-02-26T20:15:57;3.58;;;1.10;;
75700;SDS011;64321;48.796;44.740;2024-02-26T20:20:59;5.47;;;1.00;;
75700;SDS011;64321;48.796;44.740;2024-02-26T20:26:02;4.63;;;1.10;;
75700;SDS011;64321;48.796;44.740;2024-02-26T20:31:05;5.85;;;1.48;;
75700;SDS011;64321;48.796;44.740;2024-02-26T20:36:07;5.75;;;1.67;;
75700;SDS011;64321;48.796;44.740;2024-02-26T20:41:10;4.15;;;0.90;;
75700;SDS011;64321;48.796;44.740;2024-02-26T20:46:12;3.15;;;0.90;;
75700;SDS011;64321;48.796;44.740;2024-02-26T20:51:15;3.97;;;1.00;;
75700;SDS011;64321;48.796;44.740;2024-02-26T20:56:18;5.50;;;1.33;;
75700;SDS011;64321;48.796;44.740;2024-02-26T21:01:20;6.03;;;1.23;;
75700;SDS011;64321;48.796;44.740;2024-02-26T21:06:23;6.57;;;2.42;;
75700;SDS011;64321;48.796;44.740;2024-02-26T21:11:25;4.55;;;1.13;;
75700;SDS011;64321;48.796;44.740;2024-02-26T21:16:28;4.45;;;1.92;;
75700;SDS011;64321;48.796;44.740;2024-02-26T21:21:30;4.60;;;0.88;;
75700;SDS011;64321;48.796;44.740;2024-02-26T21:26:35;2.60;;;1.05;;
75700;SDS011;64321;48.796;44.740;2024-02-26T21:31:39;4.63;;;1.15;;
75700;SDS011;64321;48.796;44.740;2024-02-26T21:36:42;4.30;;;1.52;;
75700;SDS011;64321;48.796;44.740;2024-02-26T21:46:47;4.10;;;1.08;;
75700;SDS011;64321;48.796;44.740;2024-02-26T21:51:50;5.75;;;1.35;;
75700;SDS011;64321;48.796;44.740;2024-02-26T21:56:53;6.60;;;2.40;;
75700;SDS011;64321;48.796;44.740;2024-02-26T22:01:56;4.20;;;1.30;;
75700;SDS011;64321;48.796;44.740;2024-02-26T22:06:58;13.90;;;2.20;;
75700;SDS011;64321;48.796;44.740;2024-02-26T22:12:01;7.72;;;3.78;;
75700;SDS011;64321;48.796;44.740;2024-02-26T22:17:04;10.63;;;2.95;;
75700;SDS011;64321;48.796;44.740;2024-02-26T22:22:06;9.55;;;2.60;;
75700;SDS011;64321;48.796;44.740;2024-02-26T22:27:09;6.30;;;2.78;;
75700;SDS011;64321;48.796;44.740;2024-02-26T22:32:11;7.97;;;1.95;;
75700;SDS011;64321;48.796;44.740;2024-02-26T22:37:14;5.20;;;3.22;;
75700;SDS011;64321;48.796;44.740;2024-02-26T22:42:19;6.13;;;1.95;;
75700;SDS011;64321;48.796;44.740;2024-02-26T22:47:22;10.38;;;3.15;;
75700;SDS011;64321;48.796;44.740;2024-02-26T22:52:25;8.68;;;3.80;;
75700;SDS011;64321;48.796;44.740;2024-02-26T22:57:27;9.45;;;2.97;;
75700;SDS011;64321;48.796;44.740;2024-02-26T23:02:30;9.35;;;2.58;;
75700;SDS011;64321;48.796;44.740;2024-02-26T23:07:33;8.38;;;2.78;;
75700;SDS011;64321;48.796;44.740;2024-02-26T23:12:36;9.25;;;3.20;;
75700;SDS011;64321;48.796;44.740;2024-02-26T23:17:40;6.72;;;4.00;;
75700;SDS011;64321;48.796;44.740;2024-02-26T23:22:45;8.32;;;3.72;;
75700;SDS011;64321;48.796;44.740;2024-02-26T23:27:48;9.57;;;3.90;;
75700;SDS011;64321;48.796;44.740;2024-02-26T23:32:51;11.32;;;4.03;;
75700;SDS011;64321;48.796;44.740;2024-02-26T23:37:54;8.23;;;3.92;;
75700;SDS011;64321;48.796;44.740;2024-02-26T23:42:56;10.05;;;4.88;;
75700;SDS011;64321;48.796;44.740;2024-02-26T23:47:59;19.08;;;5.90;;
75700;SDS011;64321;48.796;44.740;2024-02-26T23:53:02;6.90;;;4.53;;
75700;SDS011;64321;48.796;44.740;2024-02-26T23:58:06;14.48;;;4.38;;
